map of CRK home
CRK - Airport
Location
City:  Luzon, Philippines
Name:Clark International Airport
Old (Alt.):Diosdado Macapagal International, Clark AB
ICAO:RPLC
IATA:CRK

Details
Type:Airport (Aerodrome, Airfield)
Use:Public/Civil, Military, International (customs port of entry)
Latitude:1511'10"N (15.185989)
Longitude:12033'37"E (120.560325)
Datum:WGS 1984
Elevation:484 ft (148 m)
Variation:2.37W (WMM2015 magnetic declination)
-0.10 annual change
Runways:2
Longest:10499 × 197 ft (3200 × 60 m), paved

Time
Time Zone:UTC+8
Local Time:

Weather
METAR:RPLC 240800Z 09008KT 9999 SCT020 BKN100 30/19 Q1012 NOSIG RMK A2988

Related Locations
Nearby:
Farthest:SWYM: 12449 mi / 20034 km
Pontes e Lacerda [Fazenda Anhanguera], MT, BR

Find:

   beyond  
but within

Other Information
Maps:
NOTAMs:
Links:
Sources:

  
  • flag of Philippines
  

Sectional Chart

Flight Planning
at skyvector.com

Satellite Image

Google Maps Satellite view

 

Copyright © 2004-2019 Karl L. Swartz. All rights reserved.
The Great Circle Mapper name and logo are trademarks of the Great Circle Mapper.
All other trademarks mentioned herein belong to their respective owners.
Please see credits for attibutions and further copyright information.

  Follow gcmap on Facebook Follow gcmap on Twitter Follow gcmap on Google+ GCmap on LinkedIn

hCard Microformat

Geo Microformat